Ridgedale, Missouri
Current Conditions -  °F | °C
As of 7:45 AM on Thursday 23 Oct 2014 (Local Time) from KBBG Reporting Station
Overcast Overcast  
Wind Chill: 50°   Ceiling: 12000
Heat Index: 50°   Visibility: 10mi
Dew Point: 45°   Wind: 6mph
Humidity: 82%   Direction: 120°ESE
Pressure: 30.18"   Gusts: NA
Location:  36.5°N, 93.22°W
Report Text: KBBG 231245Z 12005KT 10SM SCT060 OVC120 10/07 A3018
Loading
Personal Weather Stations






























Interactive Weather Map
Tropical Storm Tracking
New forecast layout! Learn more

10-Day Weather Forecast

Advertisements
Track Severe Weather on mobile